Davella, Kentucky
Current Conditions -  °F | °C
As of 11:55 PM on Saturday 22 Nov 2014 (Local Time) from KSJS Reporting Station
Clear Clear  
Wind Chill: 52°   Ceiling: Unl
Heat Index: 52°   Visibility: 10mi
Dew Point: 24°   Wind: 7mph
Humidity: 34%   Direction: 170°S
Pressure: 30.14"   Gusts: NA
Location:  37.7829°N, 82.6033°W
Report Text: KSJS 230455Z AUTO 17006KT 10SM CLR 11/M04 A3014 RMK AO2 T01111042 401651036
Loading
Personal Weather Stations






























Interactive Weather Map New forecast layout! Learn more

10-Day Weather Forecast

Advertisements
Track Severe Weather on mobile